Aérodrome :
LOGIN :

S'inscrire | Disclaimer

   EN    FR    IT 

 










Légende :    VFR   VFR Marginal   IFR   IFR Intensif   IFR Très Intensif
Visi : 
Plafond : 
>= 8 km
>= 3000ft
5 à 8 km
1000 à 3000 ft
1500m à 5 km
500 à 1000 ft
800 à 1500m
200 à 500 ft
< 800m
< 200 ft
Symboles :   Orages  Brouillard  Fortes neiges  Fortes précipitations  Vent > 20 kt
SIGMETs :   Divers  Orages  Givrage  Turbulence  Onde Orograph.  Cendres Volcan.







- Altitude de l'aérodrome : 276 ft
- Code IATA : RBA


GMME - Rabat

DERNIER METAR :
  • 181600Z 34007KT 300V020 CAVOK 27/19 Q1010 NOSIG

METARs EXPIRÉS :
  • 181530Z 32008KT CAVOK 27/19 Q1010 NOSIG
  • 181500Z 34008KT 300V010 CAVOK 27/19 Q1010 NOSIG
  • 181430Z 35008KT 320V020 CAVOK 27/19 Q1011 NOSIG
  • 181400Z 33009KT 300V360 CAVOK 27/18 Q1011 NOSIG
  • 181330Z 34008KT 310V010 CAVOK 27/19 Q1011 NOSIG

TAF TAF GMME
Valide du 18 à 12h jusqu'au 19 à 18h UTC


181100Z 1812/1918 32010KT CAVOK
TEMPO 1818/1824 22006KT 6000 SCT010 SCT020
TEMPO 1900/1906 VRB02KT 3000 BR
TEMPO 1912/1918 26010KT
Pas de NOTAMs connus pour ce terrain.
1 SIGMET publié pour la FIR Casablanca (GMMM) :
 
Orages noyés dans la masse
GMMM SIGMET A1 VALID 181500/181900 GMMC
GMMM CASABLANCA FIR EMBD TS FCST E OF LINE N3435 W00145 - N3357 W00 429 - N3237 W00601 - N3200 N00252 TOP FL240 STNR INTSF=



MET'MAP, la Météo Aéronautique d'un coup d'oeil ! - Copyright ORBIFLY Décembre 2007 - Disclaimer

ORBIFLY MET'MAP TEAM :

Programmation & Développement : Alexandra Zaïnal
Conception & Développement : Baudouin d'Aumeries
Co-Programmation & Développement : Marc-Olivier Méhu
Soutien technique & logistique : Manuel Goepfert

Contact : metmap@orbifly.com




SOURCES & CREDITS :

   NOAA